createdAt,value
2023-04-08T00:01:25.118Z,98491.06
2023-04-08T00:03:52.947Z,98474.97
2023-04-08T00:06:20.639Z,98481.19
2023-04-08T00:08:48.270Z,98490.69
2023-04-08T00:11:16.109Z,98486.75
2023-04-08T00:13:43.469Z,98481.97
2023-04-08T00:16:11.218Z,98486.94
2023-04-08T00:18:39.204Z,98493.16
2023-04-08T00:21:06.285Z,98502.28
2023-04-08T00:23:33.717Z,98498.84
2023-04-08T00:26:01.313Z,98502.50
2023-04-08T00:28:28.279Z,98502.22
2023-04-08T00:30:55.828Z,98497.94
2023-04-08T00:33:25.910Z,98502.38
2023-04-08T00:35:53.519Z,98499.66
2023-04-08T00:38:21.087Z,98485.78
2023-04-08T00:40:48.354Z,98489.63
2023-04-08T00:43:16.735Z,98493.69
2023-04-08T00:45:43.800Z,98489.81
2023-04-08T00:48:11.691Z,98490.78
2023-04-08T00:50:39.083Z,98490.78
2023-04-08T00:53:06.239Z,98494.81
2023-04-08T00:55:33.744Z,98495.38
2023-04-08T00:58:01.326Z,98501.41
2023-04-08T01:00:30.927Z,98499.56
2023-04-08T01:03:19.430Z,98502.75
2023-04-08T01:06:03.291Z,98501.88
2023-04-08T01:08:32.414Z,98502.19
2023-04-08T01:11:02.916Z,98496.69
2023-04-08T01:13:35.963Z,98506.38
2023-04-08T01:16:03.951Z,98504.38
2023-04-08T01:18:31.785Z,98504.47
2023-04-08T01:21:00.424Z,98503.41
2023-04-08T01:24:02.204Z,98500.50
2023-04-08T01:26:29.784Z,98503.50
2023-04-08T01:28:59.772Z,98503.75
2023-04-08T01:31:28.138Z,98498.25
2023-04-08T01:33:56.728Z,98500.75
2023-04-08T01:36:24.866Z,98501.91
2023-04-08T01:38:52.128Z,98496.34
2023-04-08T01:41:21.414Z,98495.47
2023-04-08T01:43:49.829Z,98498.81
2023-04-08T01:46:17.604Z,98503.09
2023-04-08T01:48:46.237Z,98502.53
2023-04-08T01:51:14.023Z,98503.22
2023-04-08T01:53:41.151Z,98500.66
2023-04-08T01:56:13.207Z,98497.66
2023-04-08T01:58:47.113Z,98504.69
2023-04-08T02:01:20.286Z,98491.50
2023-04-08T02:03:48.734Z,98504.38
2023-04-08T02:06:15.907Z,98503.94
2023-04-08T02:08:43.615Z,98504.38
2023-04-08T02:11:11.146Z,98510.25
2023-04-08T02:13:38.202Z,98505.84
2023-04-08T02:16:47.599Z,98505.66
2023-04-08T02:19:31.572Z,98505.19
2023-04-08T02:22:06.846Z,98503.66
2023-04-08T02:24:36.095Z,98499.28
2023-04-08T02:27:04.764Z,98506.22
2023-04-08T02:29:32.916Z,98500.38
2023-04-08T02:32:02.529Z,98508.69
2023-04-08T02:34:31.152Z,98506.25
2023-04-08T02:36:59.193Z,98504.41
2023-04-08T02:39:33.497Z,98504.50
2023-04-08T02:42:01.150Z,98500.09
2023-04-08T02:44:28.210Z,98502.59
2023-04-08T02:46:56.190Z,98508.53
2023-04-08T02:49:23.269Z,98509.09
2023-04-08T02:51:50.332Z,98505.28
2023-04-08T02:54:17.364Z,98507.06
2023-04-08T02:56:44.634Z,98516.00
2023-04-08T02:59:11.624Z,98509.44
2023-04-08T03:01:39.174Z,98508.94
2023-04-08T03:04:06.564Z,98515.19
2023-04-08T03:06:34.097Z,98516.00
2023-04-08T03:09:01.219Z,98515.13
2023-04-08T03:11:28.307Z,98510.63
2023-04-08T03:13:56.088Z,98514.38
2023-04-08T03:16:23.204Z,98516.84
2023-04-08T03:18:51.535Z,98510.34
2023-04-08T03:21:18.887Z,98506.22
2023-04-08T03:23:46.308Z,98510.44
2023-04-08T03:26:13.739Z,98508.34
2023-04-08T03:28:41.253Z,98513.09
2023-04-08T03:31:08.568Z,98507.53
2023-04-08T03:33:35.817Z,98509.44
2023-04-08T03:36:02.822Z,98507.97
2023-04-08T03:38:29.795Z,98505.47
2023-04-08T03:40:57.217Z,98502.13
2023-04-08T03:43:25.647Z,98511.34
2023-04-08T03:45:53.133Z,98515.00
2023-04-08T03:48:20.623Z,98511.78
2023-04-08T03:50:47.915Z,98511.72
2023-04-08T03:53:15.156Z,98516.34
2023-04-08T03:55:42.185Z,98519.06
2023-04-08T03:58:09.293Z,98509.22
2023-04-08T04:00:36.910Z,98507.28
2023-04-08T04:03:04.028Z,98507.97
2023-04-08T04:05:31.525Z,98507.91
2023-04-08T04:07:58.626Z,98518.00
2023-04-08T04:10:26.039Z,98517.00
2023-04-08T04:12:53.122Z,98514.69
2023-04-08T04:15:20.224Z,98513.97
2023-04-08T04:17:50.858Z,98512.06
2023-04-08T04:20:18.776Z,98522.66
2023-04-08T04:22:45.845Z,98516.91
2023-04-08T04:25:13.195Z,98520.72
2023-04-08T04:27:40.320Z,98519.81
2023-04-08T04:30:09.454Z,98523.31
2023-04-08T04:32:36.945Z,98526.84
2023-04-08T04:35:04.534Z,98531.91
2023-04-08T04:37:31.987Z,98539.44
2023-04-08T04:39:59.690Z,98530.28
2023-04-08T04:42:27.548Z,98536.50
2023-04-08T04:44:55.008Z,98539.81
2023-04-08T04:47:22.626Z,98540.81
2023-04-08T04:49:49.647Z,98551.75
2023-04-08T04:52:16.715Z,98545.38
2023-04-08T04:54:44.560Z,98552.16
2023-04-08T04:57:12.022Z,98548.41
2023-04-08T04:59:39.454Z,98556.91
2023-04-08T05:02:06.968Z,98560.47
2023-04-08T05:04:34.519Z,98561.25
2023-04-08T05:07:01.827Z,98561.25
2023-04-08T05:09:29.895Z,98563.81
2023-04-08T05:11:57.288Z,98559.63
2023-04-08T05:14:24.471Z,98564.06
2023-04-08T05:16:51.618Z,98566.41
2023-04-08T05:19:18.651Z,98562.47
2023-04-08T05:21:45.749Z,98558.31
2023-04-08T05:24:12.799Z,98565.47
2023-04-08T05:26:40.517Z,98563.06
2023-04-08T05:29:07.573Z,98558.06
2023-04-08T05:31:35.082Z,98566.16
2023-04-08T05:34:02.886Z,98556.25
2023-04-08T05:36:30.438Z,98566.91
2023-04-08T05:38:57.831Z,98579.59
2023-04-08T05:41:24.841Z,98576.75
2023-04-08T05:43:53.873Z,98571.81
2023-04-08T05:46:21.445Z,98577.25
2023-04-08T05:48:49.289Z,98576.97
2023-04-08T05:51:18.005Z,98583.13
2023-04-08T05:53:48.170Z,98582.06
2023-04-08T05:56:15.951Z,98584.13
2023-04-08T05:58:43.030Z,98581.47
2023-04-08T06:01:10.043Z,98589.06
2023-04-08T06:03:37.277Z,98588.41
2023-04-08T06:06:04.418Z,98587.88
2023-04-08T06:08:32.226Z,98603.53
2023-04-08T06:10:59.342Z,98594.66
2023-04-08T06:13:26.538Z,98597.25
2023-04-08T06:15:54.076Z,98597.09
2023-04-08T06:18:21.547Z,98591.13
2023-04-08T06:20:48.623Z,98609.59
2023-04-08T06:23:16.045Z,98605.13
2023-04-08T06:25:43.479Z,98608.28
2023-04-08T06:28:10.716Z,98615.09
2023-04-08T06:30:37.939Z,98611.13
2023-04-08T06:33:05.069Z,98609.53
2023-04-08T06:35:32.737Z,98617.41
2023-04-08T06:37:59.806Z,98619.38
2023-04-08T06:40:26.865Z,98626.06
2023-04-08T06:42:54.343Z,98622.91
2023-04-08T06:45:36.147Z,98631.59
2023-04-08T06:48:03.351Z,98627.59
2023-04-08T06:50:31.400Z,98627.00
2023-04-08T06:52:58.712Z,98624.28
2023-04-08T06:55:25.970Z,98626.41
2023-04-08T06:57:53.156Z,98624.28
2023-04-08T07:00:20.663Z,98618.25
2023-04-08T07:02:48.158Z,98623.56
2023-04-08T07:05:15.637Z,98629.81
2023-04-08T07:07:42.637Z,98628.19
2023-04-08T07:10:11.289Z,98633.66
2023-04-08T07:12:38.970Z,98634.56
2023-04-08T07:15:07.188Z,98636.47
2023-04-08T07:17:34.214Z,98633.00
2023-04-08T07:20:01.800Z,98631.81
2023-04-08T07:22:29.190Z,98637.06
2023-04-08T07:24:56.722Z,98632.31
2023-04-08T07:27:24.205Z,98634.44
2023-04-08T07:29:54.855Z,98640.25
2023-04-08T07:32:23.368Z,98640.28
2023-04-08T07:34:51.007Z,98647.47
2023-04-08T07:37:18.242Z,98652.28
2023-04-08T07:39:45.660Z,98661.03
2023-04-08T07:42:13.169Z,98666.09
2023-04-08T07:44:43.361Z,98659.97
2023-04-08T07:47:11.887Z,98671.50
2023-04-08T07:49:39.630Z,98656.38
2023-04-08T07:52:07.272Z,98659.28
2023-04-08T07:54:34.572Z,98663.03
2023-04-08T07:57:02.617Z,98666.75
2023-04-08T07:59:32.974Z,98661.47
2023-04-08T08:02:00.543Z,98666.94
2023-04-08T08:04:28.365Z,98669.44
2023-04-08T08:06:55.654Z,98666.59
2023-04-08T08:09:23.214Z,98668.66
2023-04-08T08:11:50.870Z,98665.19
2023-04-08T08:14:18.382Z,98667.13
2023-04-08T08:16:45.791Z,98663.00
2023-04-08T08:19:14.036Z,98666.81
2023-04-08T08:21:41.455Z,98665.44
2023-04-08T08:24:08.863Z,98663.81
2023-04-08T08:26:39.578Z,98664.34
2023-04-08T08:29:08.902Z,98668.19
2023-04-08T08:31:36.386Z,98667.66
2023-04-08T08:34:03.804Z,98670.88
2023-04-08T08:36:32.856Z,98674.66
2023-04-08T08:39:01.329Z,98679.84
2023-04-08T08:41:33.412Z,98675.00
2023-04-08T08:44:01.196Z,98678.75
2023-04-08T08:46:28.744Z,98683.84
2023-04-08T08:48:56.815Z,98680.38
2023-04-08T08:51:24.979Z,98681.38
2023-04-08T08:53:52.798Z,98678.00
2023-04-08T08:56:21.890Z,98676.47
2023-04-08T08:58:49.324Z,98684.69
2023-04-08T09:01:34.745Z,98691.47
2023-04-08T09:04:20.137Z,98688.94
2023-04-08T09:06:51.261Z,98692.03
2023-04-08T09:09:18.998Z,98700.63
2023-04-08T09:11:47.392Z,98699.78
2023-04-08T09:14:25.597Z,98686.25
2023-04-08T09:16:53.653Z,98695.66
2023-04-08T09:19:21.109Z,98693.84
2023-04-08T09:22:10.223Z,98696.03
2023-04-08T09:24:38.541Z,98700.34
2023-04-08T09:27:06.346Z,98704.72
2023-04-08T09:29:36.713Z,98703.72
2023-04-08T09:32:06.790Z,98699.25
2023-04-08T09:34:34.754Z,98694.31
2023-04-08T09:37:04.223Z,98698.75
2023-04-08T09:39:35.036Z,98690.38
2023-04-08T09:42:06.916Z,98694.41
2023-04-08T09:44:36.264Z,98695.03
2023-04-08T09:47:20.111Z,98691.09
2023-04-08T09:49:55.620Z,98694.22
2023-04-08T09:52:34.345Z,98689.53
2023-04-08T09:55:09.519Z,98694.13
2023-04-08T09:57:47.037Z,98690.63
2023-04-08T10:00:19.003Z,98692.19
2023-04-08T10:02:59.007Z,98692.47
2023-04-08T10:05:26.788Z,98691.09
2023-04-08T10:07:55.751Z,98700.78
2023-04-08T10:10:23.537Z,98700.59
2023-04-08T10:12:51.343Z,98698.88
2023-04-08T10:15:31.315Z,98700.38
2023-04-08T10:18:04.825Z,98701.25
2023-04-08T10:20:34.962Z,98703.91
2023-04-08T10:23:11.448Z,98696.06
2023-04-08T10:25:48.929Z,98695.69
2023-04-08T10:28:19.078Z,98698.13
2023-04-08T10:30:55.740Z,98694.66
2023-04-08T10:33:31.657Z,98693.91
2023-04-08T10:36:09.743Z,98696.31
2023-04-08T10:38:37.966Z,98695.13
2023-04-08T10:41:05.547Z,98696.09
2023-04-08T10:43:36.989Z,98697.13
2023-04-08T10:46:05.018Z,98707.09
2023-04-08T10:48:32.622Z,98702.44
2023-04-08T10:51:05.174Z,98710.50
2023-04-08T10:53:39.947Z,98705.00
2023-04-08T10:56:16.458Z,98714.78
2023-04-08T10:58:59.069Z,98712.69
2023-04-08T11:01:27.165Z,98711.41
2023-04-08T11:03:55.091Z,98706.75
2023-04-08T11:07:44.493Z,98708.22
2023-04-08T11:10:11.702Z,98711.69
2023-04-08T11:12:38.902Z,98705.28
2023-04-08T11:15:06.499Z,98714.13
2023-04-08T11:17:35.520Z,98709.31
2023-04-08T11:20:06.208Z,98709.88
2023-04-08T11:22:34.646Z,98715.25
2023-04-08T11:25:02.767Z,98719.84
2023-04-08T11:27:30.090Z,98705.84
2023-04-08T11:29:57.532Z,98713.97
2023-04-08T11:32:25.043Z,98712.63
2023-04-08T11:34:53.831Z,98710.38
2023-04-08T11:37:21.169Z,98707.22
2023-04-08T11:39:48.165Z,98702.91
2023-04-08T11:42:29.089Z,98719.56
2023-04-08T11:44:56.621Z,98715.25
2023-04-08T11:47:32.184Z,98712.72
2023-04-08T11:49:59.458Z,98707.66
2023-04-08T11:52:47.133Z,98711.69
2023-04-08T11:55:28.028Z,98714.34
2023-04-08T11:57:56.709Z,98708.84
2023-04-08T12:00:24.519Z,98709.47
2023-04-08T12:02:52.947Z,98708.41
2023-04-08T12:05:20.580Z,98716.06
2023-04-08T12:07:48.171Z,98715.06
2023-04-08T12:10:15.454Z,98717.34
2023-04-08T12:12:42.558Z,98717.63
2023-04-08T12:15:10.338Z,98712.28
2023-04-08T12:17:39.056Z,98706.41
2023-04-08T12:20:07.682Z,98710.97
2023-04-08T12:22:34.832Z,98709.31
2023-04-08T12:25:03.741Z,98715.06
2023-04-08T12:27:33.654Z,98707.88
2023-04-08T12:30:01.355Z,98711.53
2023-04-08T12:32:28.899Z,98707.53
2023-04-08T12:34:56.194Z,98712.31
2023-04-08T12:37:23.191Z,98716.44
2023-04-08T12:39:50.163Z,98710.03
2023-04-08T12:42:17.524Z,98715.63
2023-04-08T12:44:44.558Z,98714.97
2023-04-08T12:47:11.544Z,98717.53
2023-04-08T12:52:08.710Z,98720.47
2023-04-08T12:54:35.822Z,98716.94
2023-04-08T12:57:03.060Z,98707.00
2023-04-08T12:59:30.110Z,98707.22
2023-04-08T13:01:57.123Z,98711.09
2023-04-08T13:04:24.082Z,98716.34
2023-04-08T13:06:53.569Z,98712.84
2023-04-08T13:09:20.902Z,98703.88
2023-04-08T13:11:48.369Z,98703.31
2023-04-08T13:14:15.573Z,98709.84
2023-04-08T13:16:42.764Z,98701.41
2023-04-08T13:19:09.759Z,98705.34
2023-04-08T13:21:39.421Z,98696.84
2023-04-08T13:24:06.673Z,98691.59
2023-04-08T13:26:33.815Z,98684.28
2023-04-08T13:29:01.356Z,98681.53
2023-04-08T13:31:28.633Z,98697.69
2023-04-08T13:33:58.132Z,98691.81
2023-04-08T13:36:26.800Z,98698.88
2023-04-08T13:38:54.610Z,98692.31
2023-04-08T13:41:21.945Z,98694.81
2023-04-08T13:43:49.074Z,98692.13
2023-04-08T13:46:16.361Z,98706.69
2023-04-08T13:48:43.320Z,98697.91
2023-04-08T13:51:10.332Z,98698.41
2023-04-08T13:53:37.449Z,98692.25
2023-04-08T13:56:04.447Z,98698.41
2023-04-08T13:58:31.442Z,98694.81
2023-04-08T14:00:58.480Z,98700.34
2023-04-08T14:03:26.573Z,98707.84
2023-04-08T14:05:53.779Z,98711.22
2023-04-08T14:08:25.398Z,98701.91
2023-04-08T14:10:55.597Z,98709.22
2023-04-08T14:13:22.690Z,98712.09
2023-04-08T14:15:49.919Z,98707.28
2023-04-08T14:18:19.429Z,98707.22
2023-04-08T14:20:46.515Z,98710.91
2023-04-08T14:23:13.916Z,98713.88
2023-04-08T14:25:41.029Z,98712.50
2023-04-08T14:28:08.188Z,98710.72
2023-04-08T14:30:36.645Z,98708.72
2023-04-08T14:33:05.318Z,98710.66
2023-04-08T14:35:32.624Z,98716.47
2023-04-08T14:38:00.347Z,98721.09
2023-04-08T14:40:27.316Z,98726.22
2023-04-08T14:42:54.405Z,98725.00
2023-04-08T14:45:21.861Z,98724.72
2023-04-08T14:47:49.012Z,98728.97
2023-04-08T14:50:16.356Z,98720.66
2023-04-08T14:52:45.214Z,98734.53
2023-04-08T14:55:12.762Z,98726.50
2023-04-08T14:57:39.981Z,98728.94
2023-04-08T15:00:08.441Z,98732.06
2023-04-08T15:02:35.913Z,98729.97
2023-04-08T15:05:03.233Z,98736.66
2023-04-08T15:07:30.307Z,98730.31
2023-04-08T15:09:57.408Z,98744.91
2023-04-08T15:12:24.580Z,98737.63
2023-04-08T15:14:51.675Z,98733.84
2023-04-08T15:17:18.714Z,98744.50
2023-04-08T15:19:46.244Z,98743.44
2023-04-08T15:22:13.224Z,98748.47
2023-04-08T15:24:40.469Z,98748.56
2023-04-08T15:27:07.575Z,98747.91
2023-04-08T15:29:34.521Z,98752.22
2023-04-08T15:32:01.528Z,98747.25
2023-04-08T15:34:28.919Z,98747.53
2023-04-08T15:36:58.466Z,98747.66
2023-04-08T15:39:26.069Z,98748.38
2023-04-08T15:41:53.343Z,98752.97
2023-04-08T15:44:22.942Z,98751.75
2023-04-08T15:46:49.961Z,98753.72
2023-04-08T15:49:16.993Z,98762.56
2023-04-08T15:51:44.905Z,98769.34
2023-04-08T15:54:12.319Z,98764.75
2023-04-08T15:56:39.507Z,98763.47
2023-04-08T15:59:06.558Z,98768.25
2023-04-08T16:01:33.708Z,98767.66
2023-04-08T16:04:00.889Z,98764.38
2023-04-08T16:06:28.137Z,98764.28
2023-04-08T16:08:55.512Z,98772.38
2023-04-08T16:11:23.514Z,98769.91
2023-04-08T16:13:50.773Z,98771.16
2023-04-08T16:16:18.101Z,98775.56
2023-04-08T16:18:48.508Z,98779.75
2023-04-08T16:21:15.476Z,98773.44
2023-04-08T16:23:42.422Z,98775.16
2023-04-08T16:26:09.344Z,98776.72
2023-04-08T16:28:37.144Z,98771.69
2023-04-08T16:31:04.185Z,98778.22
2023-04-08T16:33:32.011Z,98777.13
2023-04-08T16:36:00.567Z,98780.03
2023-04-08T16:38:28.039Z,98774.44
2023-04-08T16:41:04.484Z,98779.66
2023-04-08T16:43:32.005Z,98775.38
2023-04-08T16:45:59.004Z,98789.47
2023-04-08T16:48:26.105Z,98782.88
2023-04-08T16:50:53.030Z,98790.44
2023-04-08T16:53:20.003Z,98796.13
2023-04-08T16:55:47.395Z,98793.81
2023-04-08T16:58:14.346Z,98796.16
2023-04-08T17:00:41.523Z,98799.78
2023-04-08T17:03:08.698Z,98807.78
2023-04-08T17:05:35.690Z,98805.09
2023-04-08T17:08:03.015Z,98806.38
2023-04-08T17:10:30.008Z,98810.50
2023-04-08T17:12:57.977Z,98815.84
2023-04-08T17:15:25.009Z,98815.72
2023-04-08T17:17:51.996Z,98816.66
2023-04-08T17:20:19.033Z,98819.41
2023-04-08T17:22:46.277Z,98826.72
2023-04-08T17:25:13.365Z,98823.81
2023-04-08T17:27:40.401Z,98824.53
2023-04-08T17:30:09.537Z,98828.00
2023-04-08T17:32:38.655Z,98825.75
2023-04-08T17:35:06.193Z,98827.50
2023-04-08T17:37:33.504Z,98831.66
2023-04-08T17:40:00.489Z,98828.94
2023-04-08T17:42:27.435Z,98833.50
2023-04-08T17:44:55.950Z,98838.16
2023-04-08T17:47:23.102Z,98829.50
2023-04-08T17:49:50.234Z,98840.81
2023-04-08T17:52:17.608Z,98837.66
2023-04-08T17:54:44.573Z,98838.97
2023-04-08T17:57:11.696Z,98843.13
2023-04-08T17:59:38.663Z,98845.53
2023-04-08T18:02:06.327Z,98845.69
2023-04-08T18:04:33.642Z,98847.00
2023-04-08T18:07:03.837Z,98839.75
2023-04-08T18:09:31.404Z,98839.03
2023-04-08T18:11:58.399Z,98848.19
2023-04-08T18:14:25.389Z,98857.13
2023-04-08T18:16:52.323Z,98851.09
2023-04-08T18:19:19.704Z,98858.34
2023-04-08T18:21:46.836Z,98857.31
2023-04-08T18:24:13.796Z,98861.53
2023-04-08T18:26:40.667Z,98873.59
2023-04-08T18:29:07.948Z,98868.13
2023-04-08T18:31:34.886Z,98872.88
2023-04-08T18:34:02.148Z,98877.91
2023-04-08T18:36:29.290Z,98880.84
2023-04-08T18:38:56.342Z,98889.44
2023-04-08T18:41:25.135Z,98887.88
2023-04-08T18:43:52.655Z,98889.16
2023-04-08T18:46:20.518Z,98892.38
2023-04-08T18:48:49.134Z,98891.91
2023-04-08T18:51:19.264Z,98895.75
2023-04-08T18:53:46.398Z,98902.97
2023-04-08T18:56:17.370Z,98888.84
2023-04-08T18:58:46.179Z,98904.75
2023-04-08T19:01:14.667Z,98903.66
2023-04-08T19:03:43.414Z,98906.13
2023-04-08T19:06:12.621Z,98908.16
2023-04-08T19:08:39.979Z,98905.38
2023-04-08T19:11:07.147Z,98910.41
2023-04-08T19:13:34.132Z,98910.84
2023-04-08T19:16:01.350Z,98905.72
2023-04-08T19:18:28.412Z,98911.03
2023-04-08T19:20:55.434Z,98919.19
2023-04-08T19:23:22.356Z,98913.31
2023-04-08T19:25:49.527Z,98914.16
2023-04-08T19:28:16.651Z,98915.34
2023-04-08T19:30:43.570Z,98919.19
2023-04-08T19:33:10.839Z,98915.88
2023-04-08T19:35:38.171Z,98921.13
2023-04-08T19:38:05.651Z,98906.47
2023-04-08T19:40:32.724Z,98917.94
2023-04-08T19:42:59.753Z,98919.66
2023-04-08T19:45:27.784Z,98922.69
2023-04-08T19:47:54.855Z,98929.09
2023-04-08T19:50:22.701Z,98927.94
2023-04-08T19:52:49.638Z,98932.16
2023-04-08T19:55:17.128Z,98936.03
2023-04-08T19:57:44.156Z,98930.31
2023-04-08T20:00:13.986Z,98933.59
2023-04-08T20:02:41.462Z,98928.50
2023-04-08T20:05:14.855Z,98932.09
2023-04-08T20:07:42.740Z,98926.72
2023-04-08T20:10:10.408Z,98928.00
2023-04-08T20:12:37.298Z,98925.13
2023-04-08T20:15:04.819Z,98929.63
2023-04-08T20:17:32.376Z,98930.72
2023-04-08T20:19:59.453Z,98931.81
2023-04-08T20:22:26.822Z,98934.19
2023-04-08T20:24:53.775Z,98929.53
2023-04-08T20:27:21.200Z,98937.16
2023-04-08T20:29:48.100Z,98935.66
2023-04-08T20:32:15.074Z,98933.66
2023-04-08T20:34:42.047Z,98937.38
2023-04-08T20:37:09.020Z,98941.88
2023-04-08T20:39:36.087Z,98938.91
2023-04-08T20:42:05.278Z,98939.00
2023-04-08T20:44:32.295Z,98939.84
2023-04-08T20:46:59.359Z,98944.84
2023-04-08T20:49:26.733Z,98938.81
2023-04-08T20:51:53.669Z,98943.91
2023-04-08T20:54:20.709Z,98935.50
2023-04-08T20:56:48.006Z,98932.84
2023-04-08T20:59:15.054Z,98933.91
2023-04-08T21:01:42.781Z,98938.09
2023-04-08T21:04:09.822Z,98938.28
2023-04-08T21:06:37.605Z,98932.66
2023-04-08T21:09:04.992Z,98941.31
2023-04-08T21:11:31.942Z,98936.44
2023-04-08T21:13:59.046Z,98942.00
2023-04-08T21:16:26.088Z,98942.41
2023-04-08T21:18:53.262Z,98936.03
2023-04-08T21:21:20.541Z,98938.28
2023-04-08T21:23:47.606Z,98936.16
2023-04-08T21:26:14.578Z,98939.50
2023-04-08T21:28:41.616Z,98931.84
2023-04-08T21:31:12.544Z,98938.31
2023-04-08T21:33:40.317Z,98936.75
2023-04-08T21:36:07.912Z,98935.97
2023-04-08T21:38:35.127Z,98937.84
2023-04-08T21:41:02.196Z,98944.53
2023-04-08T21:43:29.533Z,98935.31
2023-04-08T21:45:56.796Z,98943.09
2023-04-08T21:48:23.891Z,98936.16
2023-04-08T21:50:50.854Z,98942.22
2023-04-08T21:53:18.303Z,98936.50
2023-04-08T21:55:45.605Z,98941.38
2023-04-08T21:58:12.696Z,98942.69
2023-04-08T22:00:39.692Z,98939.81
2023-04-08T22:03:07.690Z,98934.03
2023-04-08T22:05:34.903Z,98936.25
2023-04-08T22:08:02.185Z,98933.00
2023-04-08T22:10:29.764Z,98937.25
2023-04-08T22:12:56.696Z,98930.84
2023-04-08T22:15:24.074Z,98928.25
2023-04-08T22:17:51.382Z,98928.91
2023-04-08T22:20:18.341Z,98935.63
2023-04-08T22:22:45.523Z,98933.97
2023-04-08T22:25:12.703Z,98927.72
2023-04-08T22:27:39.767Z,98931.72
2023-04-08T22:30:07.805Z,98933.97
2023-04-08T22:32:34.797Z,98933.56
2023-04-08T22:35:02.030Z,98943.69
2023-04-08T22:37:29.112Z,98935.00
2023-04-08T22:39:57.125Z,98940.03
2023-04-08T22:42:24.916Z,98934.22
2023-04-08T22:44:51.855Z,98944.31
2023-04-08T22:47:18.948Z,98933.91
2023-04-08T22:49:46.047Z,98931.38
2023-04-08T22:52:13.012Z,98931.56
2023-04-08T22:54:40.424Z,98932.88
2023-04-08T22:57:07.384Z,98935.28
2023-04-08T22:59:34.309Z,98927.94
2023-04-08T23:02:01.382Z,98926.47
2023-04-08T23:04:28.689Z,98928.47
2023-04-08T23:06:55.826Z,98927.50
2023-04-08T23:09:24.539Z,98927.38
2023-04-08T23:11:51.458Z,98922.56
2023-04-08T23:14:18.431Z,98931.31
2023-04-08T23:16:45.636Z,98927.28
2023-04-08T23:19:12.724Z,98925.78
2023-04-08T23:21:40.395Z,98927.81
2023-04-08T23:24:08.042Z,98932.13
2023-04-08T23:26:35.119Z,98932.78
2023-04-08T23:29:02.232Z,98930.47
2023-04-08T23:31:29.385Z,98932.59
2023-04-08T23:33:56.361Z,98920.34
2023-04-08T23:36:23.330Z,98924.47
2023-04-08T23:38:51.103Z,98930.13
2023-04-08T23:41:18.186Z,98928.97
2023-04-08T23:43:46.759Z,98934.06
2023-04-08T23:46:13.875Z,98931.59
2023-04-08T23:48:41.370Z,98924.78
2023-04-08T23:51:08.410Z,98926.16
2023-04-08T23:53:35.448Z,98932.22
2023-04-08T23:56:09.808Z,98933.59
2023-04-08T23:58:36.964Z,98926.25
